sensor_id;sensor_type;location;lat;lon;timestamp;temperature;humidity
41262;DHT22;29629;52.532;13.352;2023-04-15T00:00:12;9.40;99.90
41262;DHT22;29629;52.532;13.352;2023-04-15T00:02:40;9.50;99.90
41262;DHT22;29629;52.532;13.352;2023-04-15T00:05:09;9.50;99.90
41262;DHT22;29629;52.532;13.352;2023-04-15T00:07:36;9.40;99.90
41262;DHT22;29629;52.532;13.352;2023-04-15T00:10:03;9.40;99.90
41262;DHT22;29629;52.532;13.352;2023-04-15T00:12:30;9.40;99.90
41262;DHT22;29629;52.532;13.352;2023-04-15T00:14:57;9.40;99.90
41262;DHT22;29629;52.532;13.352;2023-04-15T00:17:24;9.40;99.90
41262;DHT22;29629;52.532;13.352;2023-04-15T00:19:51;9.40;99.90
41262;DHT22;29629;52.532;13.352;2023-04-15T00:22:19;9.40;99.90
41262;DHT22;29629;52.532;13.352;2023-04-15T00:24:46;9.50;99.90
41262;DHT22;29629;52.532;13.352;2023-04-15T00:27:13;9.40;99.90
41262;DHT22;29629;52.532;13.352;2023-04-15T00:29:40;9.50;99.90
41262;DHT22;29629;52.532;13.352;2023-04-15T00:32:07;9.50;99.90
41262;DHT22;29629;52.532;13.352;2023-04-15T00:34:33;9.50;99.90
41262;DHT22;29629;52.532;13.352;2023-04-15T00:37:01;9.40;99.90
41262;DHT22;29629;52.532;13.352;2023-04-15T00:39:29;9.40;99.90
41262;DHT22;29629;52.532;13.352;2023-04-15T00:41:56;9.40;99.90
41262;DHT22;29629;52.532;13.352;2023-04-15T00:44:23;9.50;99.90
41262;DHT22;29629;52.532;13.352;2023-04-15T00:46:51;9.40;99.90
41262;DHT22;29629;52.532;13.352;2023-04-15T00:49:18;9.40;99.90
41262;DHT22;29629;52.532;13.352;2023-04-15T00:51:45;9.40;99.90
41262;DHT22;29629;52.532;13.352;2023-04-15T00:54:12;9.40;99.90
41262;DHT22;29629;52.532;13.352;2023-04-15T00:56:41;9.40;99.90
41262;DHT22;29629;52.532;13.352;2023-04-15T00:59:08;9.40;99.90
41262;DHT22;29629;52.532;13.352;2023-04-15T01:01:36;9.30;99.90
41262;DHT22;29629;52.532;13.352;2023-04-15T01:04:03;9.40;99.90
41262;DHT22;29629;52.532;13.352;2023-04-15T01:06:30;9.40;99.90
41262;DHT22;29629;52.532;13.352;2023-04-15T01:08:58;9.40;99.90
41262;DHT22;29629;52.532;13.352;2023-04-15T01:11:26;9.40;99.90
41262;DHT22;29629;52.532;13.352;2023-04-15T01:13:55;9.40;99.90
41262;DHT22;29629;52.532;13.352;2023-04-15T01:16:25;9.30;99.90
41262;DHT22;29629;52.532;13.352;2023-04-15T01:18:53;9.40;99.90
41262;DHT22;29629;52.532;13.352;2023-04-15T01:21:21;9.40;99.90
41262;DHT22;29629;52.532;13.352;2023-04-15T01:23:48;9.40;99.90
41262;DHT22;29629;52.532;13.352;2023-04-15T01:26:18;9.40;99.90
41262;DHT22;29629;52.532;13.352;2023-04-15T01:28:46;9.30;99.90
41262;DHT22;29629;52.532;13.352;2023-04-15T01:31:14;9.40;99.90
41262;DHT22;29629;52.532;13.352;2023-04-15T01:33:42;9.40;99.90
41262;DHT22;29629;52.532;13.352;2023-04-15T01:36:09;9.40;99.90
41262;DHT22;29629;52.532;13.352;2023-04-15T01:38:37;9.40;99.90
41262;DHT22;29629;52.532;13.352;2023-04-15T01:41:04;9.40;99.90
41262;DHT22;29629;52.532;13.352;2023-04-15T01:43:34;9.40;99.90
41262;DHT22;29629;52.532;13.352;2023-04-15T01:46:01;9.40;99.90
41262;DHT22;29629;52.532;13.352;2023-04-15T01:48:28;9.30;99.90
41262;DHT22;29629;52.532;13.352;2023-04-15T01:50:55;9.40;99.90
41262;DHT22;29629;52.532;13.352;2023-04-15T01:53:23;9.40;99.90
41262;DHT22;29629;52.532;13.352;2023-04-15T01:55:50;9.40;99.90
41262;DHT22;29629;52.532;13.352;2023-04-15T01:58:18;9.30;99.90
41262;DHT22;29629;52.532;13.352;2023-04-15T02:00:46;9.30;99.90
41262;DHT22;29629;52.532;13.352;2023-04-15T02:03:13;9.40;99.90
41262;DHT22;29629;52.532;13.352;2023-04-15T02:05:40;9.40;99.90
41262;DHT22;29629;52.532;13.352;2023-04-15T02:08:07;9.40;99.90
41262;DHT22;29629;52.532;13.352;2023-04-15T02:10:34;9.40;99.90
41262;DHT22;29629;52.532;13.352;2023-04-15T02:13:01;9.40;99.90
41262;DHT22;29629;52.532;13.352;2023-04-15T02:15:28;9.40;99.90
41262;DHT22;29629;52.532;13.352;2023-04-15T02:17:56;9.40;99.90
41262;DHT22;29629;52.532;13.352;2023-04-15T02:20:25;9.40;99.90
41262;DHT22;29629;52.532;13.352;2023-04-15T02:22:52;9.40;99.90
41262;DHT22;29629;52.532;13.352;2023-04-15T02:25:19;9.40;99.90
41262;DHT22;29629;52.532;13.352;2023-04-15T02:27:46;9.40;99.90
41262;DHT22;29629;52.532;13.352;2023-04-15T02:30:12;9.40;99.90
41262;DHT22;29629;52.532;13.352;2023-04-15T02:32:40;9.40;99.90
41262;DHT22;29629;52.532;13.352;2023-04-15T02:35:10;9.40;99.90
41262;DHT22;29629;52.532;13.352;2023-04-15T02:37:37;9.40;99.90
41262;DHT22;29629;52.532;13.352;2023-04-15T02:40:08;9.40;99.90
41262;DHT22;29629;52.532;13.352;2023-04-15T02:42:37;9.40;99.90
41262;DHT22;29629;52.532;13.352;2023-04-15T02:45:05;9.40;99.90
41262;DHT22;29629;52.532;13.352;2023-04-15T02:47:32;9.40;99.90
41262;DHT22;29629;52.532;13.352;2023-04-15T02:49:59;9.40;99.90
41262;DHT22;29629;52.532;13.352;2023-04-15T02:52:27;9.40;99.90
41262;DHT22;29629;52.532;13.352;2023-04-15T02:54:54;9.40;99.90
41262;DHT22;29629;52.532;13.352;2023-04-15T02:57:25;9.30;99.90
41262;DHT22;29629;52.532;13.352;2023-04-15T02:59:52;9.30;99.90
41262;DHT22;29629;52.532;13.352;2023-04-15T03:02:19;9.40;99.90
41262;DHT22;29629;52.532;13.352;2023-04-15T03:04:46;9.40;99.90
41262;DHT22;29629;52.532;13.352;2023-04-15T03:07:13;9.30;99.90
41262;DHT22;29629;52.532;13.352;2023-04-15T03:09:41;9.40;99.90
41262;DHT22;29629;52.532;13.352;2023-04-15T03:12:09;9.40;99.90
41262;DHT22;29629;52.532;13.352;2023-04-15T03:14:35;9.40;99.90
41262;DHT22;29629;52.532;13.352;2023-04-15T03:17:02;9.40;99.90
41262;DHT22;29629;52.532;13.352;2023-04-15T03:19:29;9.40;99.90
41262;DHT22;29629;52.532;13.352;2023-04-15T03:21:56;9.40;99.90
41262;DHT22;29629;52.532;13.352;2023-04-15T03:24:23;9.50;99.90
41262;DHT22;29629;52.532;13.352;2023-04-15T03:26:51;9.40;99.90
41262;DHT22;29629;52.532;13.352;2023-04-15T03:29:19;9.40;99.90
41262;DHT22;29629;52.532;13.352;2023-04-15T03:31:46;9.50;99.90
41262;DHT22;29629;52.532;13.352;2023-04-15T03:34:13;9.40;99.90
41262;DHT22;29629;52.532;13.352;2023-04-15T03:36:40;9.40;99.90
41262;DHT22;29629;52.532;13.352;2023-04-15T03:39:07;9.50;99.90
41262;DHT22;29629;52.532;13.352;2023-04-15T03:41:34;9.50;99.90
41262;DHT22;29629;52.532;13.352;2023-04-15T03:44:02;9.40;99.90
41262;DHT22;29629;52.532;13.352;2023-04-15T03:46:29;9.50;99.90
41262;DHT22;29629;52.532;13.352;2023-04-15T03:48:57;9.40;99.90
41262;DHT22;29629;52.532;13.352;2023-04-15T03:51:24;9.50;99.90
41262;DHT22;29629;52.532;13.352;2023-04-15T03:53:52;9.50;99.90
41262;DHT22;29629;52.532;13.352;2023-04-15T03:56:18;9.50;99.90
41262;DHT22;29629;52.532;13.352;2023-04-15T03:58:45;9.50;99.90
41262;DHT22;29629;52.532;13.352;2023-04-15T04:01:14;9.50;99.90
41262;DHT22;29629;52.532;13.352;2023-04-15T04:03:41;9.50;99.90
41262;DHT22;29629;52.532;13.352;2023-04-15T04:06:08;9.50;99.90
41262;DHT22;29629;52.532;13.352;2023-04-15T04:08:35;9.60;99.90
41262;DHT22;29629;52.532;13.352;2023-04-15T04:11:01;9.50;99.90
41262;DHT22;29629;52.532;13.352;2023-04-15T04:13:28;9.50;99.90
41262;DHT22;29629;52.532;13.352;2023-04-15T04:15:55;9.50;99.90
41262;DHT22;29629;52.532;13.352;2023-04-15T04:18:23;9.50;99.90
41262;DHT22;29629;52.532;13.352;2023-04-15T04:20:50;9.50;99.90
41262;DHT22;29629;52.532;13.352;2023-04-15T04:23:17;9.50;99.90
41262;DHT22;29629;52.532;13.352;2023-04-15T04:25:44;9.50;99.90
41262;DHT22;29629;52.532;13.352;2023-04-15T04:28:11;9.50;99.90
41262;DHT22;29629;52.532;13.352;2023-04-15T04:30:39;9.50;99.90
41262;DHT22;29629;52.532;13.352;2023-04-15T04:33:06;9.50;99.90
41262;DHT22;29629;52.532;13.352;2023-04-15T04:35:34;9.50;99.90
41262;DHT22;29629;52.532;13.352;2023-04-15T04:38:02;9.50;99.90
41262;DHT22;29629;52.532;13.352;2023-04-15T04:40:29;9.60;99.90
41262;DHT22;29629;52.532;13.352;2023-04-15T04:42:56;9.50;99.90
41262;DHT22;29629;52.532;13.352;2023-04-15T04:45:23;9.60;99.90
41262;DHT22;29629;52.532;13.352;2023-04-15T04:47:50;9.60;99.90
41262;DHT22;29629;52.532;13.352;2023-04-15T04:50:17;9.60;99.90
41262;DHT22;29629;52.532;13.352;2023-04-15T04:52:45;9.60;99.90
41262;DHT22;29629;52.532;13.352;2023-04-15T04:55:12;9.60;99.90
41262;DHT22;29629;52.532;13.352;2023-04-15T04:57:39;9.60;99.90
41262;DHT22;29629;52.532;13.352;2023-04-15T05:00:07;9.60;99.90
41262;DHT22;29629;52.532;13.352;2023-04-15T05:02:34;9.70;99.90
41262;DHT22;29629;52.532;13.352;2023-04-15T05:05:01;9.70;99.90
41262;DHT22;29629;52.532;13.352;2023-04-15T05:07:28;9.70;99.90
41262;DHT22;29629;52.532;13.352;2023-04-15T05:09:56;9.70;99.90
41262;DHT22;29629;52.532;13.352;2023-04-15T05:12:23;9.70;99.90
41262;DHT22;29629;52.532;13.352;2023-04-15T05:14:50;9.80;99.90
41262;DHT22;29629;52.532;13.352;2023-04-15T05:17:17;9.70;99.90
41262;DHT22;29629;52.532;13.352;2023-04-15T05:19:44;9.70;99.90
41262;DHT22;29629;52.532;13.352;2023-04-15T05:22:11;9.80;99.90
41262;DHT22;29629;52.532;13.352;2023-04-15T05:24:38;9.80;99.90
41262;DHT22;29629;52.532;13.352;2023-04-15T05:27:06;9.80;99.90
41262;DHT22;29629;52.532;13.352;2023-04-15T05:29:35;9.80;99.90
41262;DHT22;29629;52.532;13.352;2023-04-15T05:32:02;9.80;99.90
41262;DHT22;29629;52.532;13.352;2023-04-15T05:34:29;9.80;99.90
41262;DHT22;29629;52.532;13.352;2023-04-15T05:36:56;9.80;99.90
41262;DHT22;29629;52.532;13.352;2023-04-15T05:39:23;9.90;99.90
41262;DHT22;29629;52.532;13.352;2023-04-15T05:41:50;9.90;99.90
41262;DHT22;29629;52.532;13.352;2023-04-15T05:44:18;10.00;99.90
41262;DHT22;29629;52.532;13.352;2023-04-15T05:46:45;10.00;99.90
41262;DHT22;29629;52.532;13.352;2023-04-15T05:49:12;10.00;99.90
41262;DHT22;29629;52.532;13.352;2023-04-15T05:51:39;10.00;99.90
41262;DHT22;29629;52.532;13.352;2023-04-15T05:54:06;10.10;99.90
41262;DHT22;29629;52.532;13.352;2023-04-15T05:56:33;10.10;99.90
41262;DHT22;29629;52.532;13.352;2023-04-15T05:59:00;10.10;99.90
41262;DHT22;29629;52.532;13.352;2023-04-15T06:01:28;10.20;99.90
41262;DHT22;29629;52.532;13.352;2023-04-15T06:03:55;10.10;99.90
41262;DHT22;29629;52.532;13.352;2023-04-15T06:06:21;10.20;99.90
41262;DHT22;29629;52.532;13.352;2023-04-15T06:08:49;10.30;99.90
41262;DHT22;29629;52.532;13.352;2023-04-15T06:11:16;10.30;99.90
41262;DHT22;29629;52.532;13.352;2023-04-15T06:13:42;10.40;99.90
41262;DHT22;29629;52.532;13.352;2023-04-15T06:16:09;10.30;99.90
41262;DHT22;29629;52.532;13.352;2023-04-15T06:18:37;10.40;99.90
41262;DHT22;29629;52.532;13.352;2023-04-15T06:21:04;10.40;99.90
41262;DHT22;29629;52.532;13.352;2023-04-15T06:23:33;10.40;99.90
41262;DHT22;29629;52.532;13.352;2023-04-15T06:26:00;10.40;99.90
41262;DHT22;29629;52.532;13.352;2023-04-15T06:28:27;10.50;99.90
41262;DHT22;29629;52.532;13.352;2023-04-15T06:30:54;10.60;99.90
41262;DHT22;29629;52.532;13.352;2023-04-15T06:33:21;10.50;99.90
41262;DHT22;29629;52.532;13.352;2023-04-15T06:35:50;10.60;99.90
41262;DHT22;29629;52.532;13.352;2023-04-15T06:38:17;10.60;99.90
41262;DHT22;29629;52.532;13.352;2023-04-15T06:40:44;10.60;99.90
41262;DHT22;29629;52.532;13.352;2023-04-15T06:43:11;10.70;99.90
41262;DHT22;29629;52.532;13.352;2023-04-15T06:45:38;10.80;99.90
41262;DHT22;29629;52.532;13.352;2023-04-15T06:48:05;10.80;99.90
41262;DHT22;29629;52.532;13.352;2023-04-15T06:50:32;10.90;99.90
41262;DHT22;29629;52.532;13.352;2023-04-15T06:53:01;11.00;99.90
41262;DHT22;29629;52.532;13.352;2023-04-15T06:55:28;11.10;99.90
41262;DHT22;29629;52.532;13.352;2023-04-15T06:57:56;11.20;99.90
41262;DHT22;29629;52.532;13.352;2023-04-15T07:00:23;11.20;99.90
41262;DHT22;29629;52.532;13.352;2023-04-15T07:02:50;11.20;99.90
41262;DHT22;29629;52.532;13.352;2023-04-15T07:05:17;11.20;99.90
41262;DHT22;29629;52.532;13.352;2023-04-15T07:07:44;11.30;99.90
41262;DHT22;29629;52.532;13.352;2023-04-15T07:10:16;11.40;99.90
41262;DHT22;29629;52.532;13.352;2023-04-15T07:12:43;11.50;99.90
41262;DHT22;29629;52.532;13.352;2023-04-15T07:15:10;11.50;99.90
41262;DHT22;29629;52.532;13.352;2023-04-15T07:17:37;11.50;99.90
41262;DHT22;29629;52.532;13.352;2023-04-15T07:20:05;11.50;99.90
41262;DHT22;29629;52.532;13.352;2023-04-15T07:22:32;11.50;99.90
41262;DHT22;29629;52.532;13.352;2023-04-15T07:25:03;11.40;99.90
41262;DHT22;29629;52.532;13.352;2023-04-15T07:27:31;11.40;99.90
41262;DHT22;29629;52.532;13.352;2023-04-15T07:29:58;11.40;99.90
41262;DHT22;29629;52.532;13.352;2023-04-15T07:32:25;11.30;99.90
41262;DHT22;29629;52.532;13.352;2023-04-15T07:34:52;11.20;99.90
41262;DHT22;29629;52.532;13.352;2023-04-15T07:37:19;11.30;99.90
41262;DHT22;29629;52.532;13.352;2023-04-15T07:39:46;11.30;99.90
41262;DHT22;29629;52.532;13.352;2023-04-15T07:42:13;11.30;99.90
41262;DHT22;29629;52.532;13.352;2023-04-15T07:44:41;11.20;99.90
41262;DHT22;29629;52.532;13.352;2023-04-15T07:47:08;11.30;99.90
41262;DHT22;29629;52.532;13.352;2023-04-15T07:49:35;11.30;99.90
41262;DHT22;29629;52.532;13.352;2023-04-15T07:52:02;11.20;99.90
41262;DHT22;29629;52.532;13.352;2023-04-15T07:54:29;11.10;99.90
41262;DHT22;29629;52.532;13.352;2023-04-15T07:56:56;11.10;99.90
41262;DHT22;29629;52.532;13.352;2023-04-15T07:59:23;11.00;99.90
41262;DHT22;29629;52.532;13.352;2023-04-15T08:01:53;11.00;99.90
41262;DHT22;29629;52.532;13.352;2023-04-15T08:04:20;11.10;99.90
41262;DHT22;29629;52.532;13.352;2023-04-15T08:06:47;11.00;99.90
41262;DHT22;29629;52.532;13.352;2023-04-15T08:09:14;11.10;99.90
41262;DHT22;29629;52.532;13.352;2023-04-15T08:11:41;11.00;99.90
41262;DHT22;29629;52.532;13.352;2023-04-15T08:14:08;11.00;99.90
41262;DHT22;29629;52.532;13.352;2023-04-15T08:16:35;11.10;99.90
41262;DHT22;29629;52.532;13.352;2023-04-15T08:19:04;11.00;99.90
41262;DHT22;29629;52.532;13.352;2023-04-15T08:21:31;11.00;99.90
41262;DHT22;29629;52.532;13.352;2023-04-15T08:23:58;11.00;99.90
41262;DHT22;29629;52.532;13.352;2023-04-15T08:26:26;11.00;99.90
41262;DHT22;29629;52.532;13.352;2023-04-15T08:28:53;11.00;99.90
41262;DHT22;29629;52.532;13.352;2023-04-15T08:31:20;10.90;99.90
41262;DHT22;29629;52.532;13.352;2023-04-15T08:33:47;10.90;99.90
41262;DHT22;29629;52.532;13.352;2023-04-15T08:36:18;11.00;99.90
41262;DHT22;29629;52.532;13.352;2023-04-15T08:38:45;11.00;99.90
41262;DHT22;29629;52.532;13.352;2023-04-15T08:41:19;11.00;99.90
41262;DHT22;29629;52.532;13.352;2023-04-15T08:43:51;11.00;99.90
41262;DHT22;29629;52.532;13.352;2023-04-15T08:46:20;11.00;99.90
41262;DHT22;29629;52.532;13.352;2023-04-15T08:48:47;11.00;99.90
41262;DHT22;29629;52.532;13.352;2023-04-15T08:51:16;11.10;99.90
41262;DHT22;29629;52.532;13.352;2023-04-15T08:53:43;11.20;99.90
41262;DHT22;29629;52.532;13.352;2023-04-15T08:56:13;11.10;99.90
41262;DHT22;29629;52.532;13.352;2023-04-15T08:58:41;11.10;99.90
41262;DHT22;29629;52.532;13.352;2023-04-15T09:01:11;11.00;99.90
41262;DHT22;29629;52.532;13.352;2023-04-15T09:03:38;11.10;99.90
41262;DHT22;29629;52.532;13.352;2023-04-15T09:06:05;11.10;99.90
41262;DHT22;29629;52.532;13.352;2023-04-15T09:08:34;11.10;99.90
41262;DHT22;29629;52.532;13.352;2023-04-15T09:11:01;11.10;99.90
41262;DHT22;29629;52.532;13.352;2023-04-15T09:13:28;11.20;99.90
41262;DHT22;29629;52.532;13.352;2023-04-15T09:15:56;11.10;99.90
41262;DHT22;29629;52.532;13.352;2023-04-15T09:18:27;11.10;99.90
41262;DHT22;29629;52.532;13.352;2023-04-15T09:20:55;11.10;99.90
41262;DHT22;29629;52.532;13.352;2023-04-15T09:23:30;11.10;99.90
41262;DHT22;29629;52.532;13.352;2023-04-15T09:26:00;11.10;99.90
41262;DHT22;29629;52.532;13.352;2023-04-15T09:28:27;11.00;99.90
41262;DHT22;29629;52.532;13.352;2023-04-15T09:30:58;11.10;99.90
41262;DHT22;29629;52.532;13.352;2023-04-15T09:33:26;11.20;99.90
41262;DHT22;29629;52.532;13.352;2023-04-15T09:35:57;11.20;99.90
41262;DHT22;29629;52.532;13.352;2023-04-15T09:38:25;11.20;99.90
41262;DHT22;29629;52.532;13.352;2023-04-15T09:40:52;11.30;99.90
41262;DHT22;29629;52.532;13.352;2023-04-15T09:43:20;11.30;99.90
41262;DHT22;29629;52.532;13.352;2023-04-15T09:45:48;11.30;99.90
41262;DHT22;29629;52.532;13.352;2023-04-15T09:48:17;11.30;99.90
41262;DHT22;29629;52.532;13.352;2023-04-15T09:50:45;11.30;99.90
41262;DHT22;29629;52.532;13.352;2023-04-15T09:53:15;11.30;99.90
41262;DHT22;29629;52.532;13.352;2023-04-15T09:55:45;11.30;99.90
41262;DHT22;29629;52.532;13.352;2023-04-15T09:58:17;11.40;99.90
41262;DHT22;29629;52.532;13.352;2023-04-15T10:00:47;11.30;99.90
41262;DHT22;29629;52.532;13.352;2023-04-15T10:03:18;11.30;99.90
41262;DHT22;29629;52.532;13.352;2023-04-15T10:05:47;11.30;99.90
41262;DHT22;29629;52.532;13.352;2023-04-15T10:08:16;11.30;99.90
41262;DHT22;29629;52.532;13.352;2023-04-15T10:10:44;11.20;99.90
41262;DHT22;29629;52.532;13.352;2023-04-15T10:13:12;11.20;99.90
41262;DHT22;29629;52.532;13.352;2023-04-15T10:15:42;11.10;99.90
41262;DHT22;29629;52.532;13.352;2023-04-15T10:18:12;11.30;99.90
41262;DHT22;29629;52.532;13.352;2023-04-15T10:20:41;11.20;99.90
41262;DHT22;29629;52.532;13.352;2023-04-15T10:23:09;11.20;99.90
41262;DHT22;29629;52.532;13.352;2023-04-15T10:25:37;11.30;99.90
41262;DHT22;29629;52.532;13.352;2023-04-15T10:28:05;11.20;99.90
41262;DHT22;29629;52.532;13.352;2023-04-15T10:30:33;11.30;99.90
41262;DHT22;29629;52.532;13.352;2023-04-15T10:33:00;11.20;99.90
41262;DHT22;29629;52.532;13.352;2023-04-15T10:35:30;11.30;99.90
41262;DHT22;29629;52.532;13.352;2023-04-15T10:37:58;11.30;99.90
41262;DHT22;29629;52.532;13.352;2023-04-15T10:40:27;11.30;99.90
41262;DHT22;29629;52.532;13.352;2023-04-15T10:42:57;11.30;99.90
41262;DHT22;29629;52.532;13.352;2023-04-15T10:45:28;11.30;99.90
41262;DHT22;29629;52.532;13.352;2023-04-15T10:48:00;11.40;99.90
41262;DHT22;29629;52.532;13.352;2023-04-15T10:50:32;11.40;99.90
41262;DHT22;29629;52.532;13.352;2023-04-15T10:53:01;11.40;99.90
41262;DHT22;29629;52.532;13.352;2023-04-15T10:55:31;11.40;99.90
41262;DHT22;29629;52.532;13.352;2023-04-15T10:58:00;11.40;99.90
41262;DHT22;29629;52.532;13.352;2023-04-15T11:00:28;11.40;99.90
41262;DHT22;29629;52.532;13.352;2023-04-15T11:02:57;11.30;99.90
41262;DHT22;29629;52.532;13.352;2023-04-15T11:05:49;11.40;99.90
41262;DHT22;29629;52.532;13.352;2023-04-15T11:08:18;11.30;99.90
41262;DHT22;29629;52.532;13.352;2023-04-15T11:10:53;11.30;99.90
41262;DHT22;29629;52.532;13.352;2023-04-15T11:13:25;11.40;99.90
41262;DHT22;29629;52.532;13.352;2023-04-15T11:16:00;11.40;99.90
41262;DHT22;29629;52.532;13.352;2023-04-15T11:18:29;11.60;99.90
41262;DHT22;29629;52.532;13.352;2023-04-15T11:21:00;11.50;99.90
41262;DHT22;29629;52.532;13.352;2023-04-15T11:23:30;11.50;99.90
41262;DHT22;29629;52.532;13.352;2023-04-15T11:25:59;11.50;99.90
41262;DHT22;29629;52.532;13.352;2023-04-15T11:28:28;11.50;99.90
41262;DHT22;29629;52.532;13.352;2023-04-15T11:30:55;11.50;99.90
41262;DHT22;29629;52.532;13.352;2023-04-15T11:33:23;11.40;99.90
41262;DHT22;29629;52.532;13.352;2023-04-15T11:35:51;11.30;99.90
41262;DHT22;29629;52.532;13.352;2023-04-15T11:38:20;11.20;99.90
41262;DHT22;29629;52.532;13.352;2023-04-15T11:40:48;11.20;99.90
41262;DHT22;29629;52.532;13.352;2023-04-15T11:43:17;11.30;99.90
41262;DHT22;29629;52.532;13.352;2023-04-15T11:45:50;11.30;99.90
41262;DHT22;29629;52.532;13.352;2023-04-15T11:48:19;11.40;99.90
41262;DHT22;29629;52.532;13.352;2023-04-15T11:50:52;11.40;99.90
41262;DHT22;29629;52.532;13.352;2023-04-15T11:53:20;11.40;99.90
41262;DHT22;29629;52.532;13.352;2023-04-15T11:55:49;11.40;99.90
41262;DHT22;29629;52.532;13.352;2023-04-15T11:58:18;11.50;99.90
41262;DHT22;29629;52.532;13.352;2023-04-15T12:00:46;11.50;99.90
41262;DHT22;29629;52.532;13.352;2023-04-15T12:03:18;11.40;99.90
41262;DHT22;29629;52.532;13.352;2023-04-15T12:06:08;11.40;99.90
41262;DHT22;29629;52.532;13.352;2023-04-15T12:08:57;11.40;99.90
41262;DHT22;29629;52.532;13.352;2023-04-15T12:11:33;11.40;99.90
41262;DHT22;29629;52.532;13.352;2023-04-15T12:14:03;11.40;99.90
41262;DHT22;29629;52.532;13.352;2023-04-15T12:16:32;11.40;99.90
41262;DHT22;29629;52.532;13.352;2023-04-15T12:19:03;11.40;99.90
41262;DHT22;29629;52.532;13.352;2023-04-15T12:21:33;11.40;99.90
41262;DHT22;29629;52.532;13.352;2023-04-15T12:24:03;11.40;99.90
41262;DHT22;29629;52.532;13.352;2023-04-15T12:26:33;11.50;99.90
41262;DHT22;29629;52.532;13.352;2023-04-15T12:29:02;11.60;99.90
41262;DHT22;29629;52.532;13.352;2023-04-15T12:31:29;11.70;99.90
41262;DHT22;29629;52.532;13.352;2023-04-15T12:33:56;11.80;99.90
41262;DHT22;29629;52.532;13.352;2023-04-15T12:36:23;12.00;99.90
41262;DHT22;29629;52.532;13.352;2023-04-15T12:38:50;12.00;99.90
41262;DHT22;29629;52.532;13.352;2023-04-15T12:41:19;12.00;99.90
41262;DHT22;29629;52.532;13.352;2023-04-15T12:43:46;12.10;99.90
41262;DHT22;29629;52.532;13.352;2023-04-15T12:46:14;12.00;99.90
41262;DHT22;29629;52.532;13.352;2023-04-15T12:48:41;12.10;99.90
41262;DHT22;29629;52.532;13.352;2023-04-15T12:51:08;12.00;99.90
41262;DHT22;29629;52.532;13.352;2023-04-15T12:53:35;12.00;99.90
41262;DHT22;29629;52.532;13.352;2023-04-15T12:56:03;11.90;99.90
41262;DHT22;29629;52.532;13.352;2023-04-15T12:58:31;11.90;99.90
41262;DHT22;29629;52.532;13.352;2023-04-15T13:00:58;11.90;99.90
41262;DHT22;29629;52.532;13.352;2023-04-15T13:03:25;11.80;99.90
41262;DHT22;29629;52.532;13.352;2023-04-15T13:05:52;11.80;99.90
41262;DHT22;29629;52.532;13.352;2023-04-15T13:08:19;11.80;99.90
41262;DHT22;29629;52.532;13.352;2023-04-15T13:10:46;11.90;99.90
41262;DHT22;29629;52.532;13.352;2023-04-15T13:13:13;11.80;99.90
41262;DHT22;29629;52.532;13.352;2023-04-15T13:15:41;11.90;99.90
41262;DHT22;29629;52.532;13.352;2023-04-15T13:18:10;11.90;99.90
41262;DHT22;29629;52.532;13.352;2023-04-15T13:20:37;12.00;99.90
41262;DHT22;29629;52.532;13.352;2023-04-15T13:23:04;11.90;99.90
41262;DHT22;29629;52.532;13.352;2023-04-15T13:25:31;12.00;99.90
41262;DHT22;29629;52.532;13.352;2023-04-15T13:27:58;12.00;99.90
41262;DHT22;29629;52.532;13.352;2023-04-15T13:30:26;12.00;99.90
41262;DHT22;29629;52.532;13.352;2023-04-15T13:32:54;12.00;99.90
41262;DHT22;29629;52.532;13.352;2023-04-15T13:35:21;12.00;99.90
41262;DHT22;29629;52.532;13.352;2023-04-15T13:37:48;12.00;99.90
41262;DHT22;29629;52.532;13.352;2023-04-15T13:40:15;11.90;99.90
41262;DHT22;29629;52.532;13.352;2023-04-15T13:42:42;11.90;99.90
41262;DHT22;29629;52.532;13.352;2023-04-15T13:45:09;11.90;99.90
41262;DHT22;29629;52.532;13.352;2023-04-15T13:47:36;11.90;99.90
41262;DHT22;29629;52.532;13.352;2023-04-15T13:50:05;11.90;99.90
41262;DHT22;29629;52.532;13.352;2023-04-15T13:52:32;11.90;99.90
41262;DHT22;29629;52.532;13.352;2023-04-15T13:55:00;11.90;99.90
41262;DHT22;29629;52.532;13.352;2023-04-15T13:57:26;11.90;99.90
41262;DHT22;29629;52.532;13.352;2023-04-15T13:59:53;11.90;99.90
41262;DHT22;29629;52.532;13.352;2023-04-15T14:02:21;11.90;99.90
41262;DHT22;29629;52.532;13.352;2023-04-15T14:04:48;11.90;99.90
41262;DHT22;29629;52.532;13.352;2023-04-15T14:07:17;11.90;99.90
41262;DHT22;29629;52.532;13.352;2023-04-15T14:09:44;11.90;99.90
41262;DHT22;29629;52.532;13.352;2023-04-15T14:12:11;11.90;99.90
41262;DHT22;29629;52.532;13.352;2023-04-15T14:14:37;11.80;99.90
41262;DHT22;29629;52.532;13.352;2023-04-15T14:17:05;11.80;99.90
41262;DHT22;29629;52.532;13.352;2023-04-15T14:19:32;11.80;99.90
41262;DHT22;29629;52.532;13.352;2023-04-15T14:21:59;11.80;99.90
41262;DHT22;29629;52.532;13.352;2023-04-15T14:24:27;11.90;99.90
41262;DHT22;29629;52.532;13.352;2023-04-15T14:26:54;11.90;99.90
41262;DHT22;29629;52.532;13.352;2023-04-15T14:29:22;11.80;99.90
41262;DHT22;29629;52.532;13.352;2023-04-15T14:31:49;11.80;99.90
41262;DHT22;29629;52.532;13.352;2023-04-15T14:34:16;11.80;99.90
41262;DHT22;29629;52.532;13.352;2023-04-15T14:36:43;11.80;99.90
41262;DHT22;29629;52.532;13.352;2023-04-15T14:39:10;11.80;99.90
41262;DHT22;29629;52.532;13.352;2023-04-15T14:41:38;11.70;99.90
41262;DHT22;29629;52.532;13.352;2023-04-15T14:44:06;11.70;99.90
41262;DHT22;29629;52.532;13.352;2023-04-15T14:46:33;11.70;99.90
41262;DHT22;29629;52.532;13.352;2023-04-15T14:49:00;11.60;99.90
41262;DHT22;29629;52.532;13.352;2023-04-15T14:51:27;11.60;99.90
41262;DHT22;29629;52.532;13.352;2023-04-15T14:53:55;11.60;99.90
41262;DHT22;29629;52.532;13.352;2023-04-15T14:56:22;11.60;99.90
41262;DHT22;29629;52.532;13.352;2023-04-15T14:58:51;11.70;99.90
41262;DHT22;29629;52.532;13.352;2023-04-15T15:01:18;11.60;99.90
41262;DHT22;29629;52.532;13.352;2023-04-15T15:03:46;11.70;99.90
41262;DHT22;29629;52.532;13.352;2023-04-15T15:06:13;11.60;99.90
41262;DHT22;29629;52.532;13.352;2023-04-15T15:08:40;11.60;99.90
41262;DHT22;29629;52.532;13.352;2023-04-15T15:11:07;11.60;99.90
41262;DHT22;29629;52.532;13.352;2023-04-15T15:13:34;11.60;99.90
41262;DHT22;29629;52.532;13.352;2023-04-15T15:16:03;11.60;99.90
41262;DHT22;29629;52.532;13.352;2023-04-15T15:18:30;11.70;99.90
41262;DHT22;29629;52.532;13.352;2023-04-15T15:20:56;11.70;99.90
41262;DHT22;29629;52.532;13.352;2023-04-15T15:23:23;11.60;99.90
41262;DHT22;29629;52.532;13.352;2023-04-15T15:25:50;11.60;99.90